Time;durP1;ratioP1;P1;durP2;ratioP2;P2;SDS_P1;SDS_P2;PMS_P1;PMS_P2;Temp;Humidity;BMP_temperature;BMP_pressure;BME280_temperature;BME280_humidity;BME280_pressure;Samples;Min_cycle;Max_cycle;Signal;HPM_P1;HPM_P2
2021/08/06 00:02:23;;;;;;;10.30;4.63;;;;;;;18.60;74.15;100262.09;4980752;28;20450;-72
2021/08/06 00:04:51;;;;;;;9.57;4.85;;;;;;;18.57;74.35;100265.88;4977632;28;20074;-71
2021/08/06 00:07:23;;;;;;;8.90;5.07;;;;;;;18.61;74.22;100261.97;4976757;28;20093;-71
2021/08/06 00:09:52;;;;;;;9.48;5.13;;;;;;;18.66;73.16;100276.00;4981250;28;20093;-71
2021/08/06 00:12:19;;;;;;;10.15;4.65;;;;;;;18.64;73.66;100272.56;4979430;28;20062;-71
2021/08/06 00:14:47;;;;;;;9.18;4.82;;;;;;;18.60;74.96;100279.16;4982953;28;20079;-71
2021/08/06 00:17:15;;;;;;;7.30;4.32;;;;;;;18.60;74.99;100279.16;4978083;28;20057;-72
2021/08/06 00:19:45;;;;;;;12.13;4.82;;;;;;;18.52;75.34;100267.19;4979331;28;20070;-71
2021/08/06 00:22:13;;;;;;;10.15;5.03;;;;;;;18.41;77.47;100271.56;4981384;28;20062;-72
2021/08/06 00:24:40;;;;;;;9.50;4.60;;;;;;;18.30;78.32;100257.97;4979006;28;20098;-73
2021/08/06 00:27:08;;;;;;;9.18;4.53;;;;;;;18.22;78.90;100263.94;4982622;28;20105;-77
2021/08/06 00:29:36;;;;;;;9.32;4.82;;;;;;;18.08;80.63;100264.09;4982198;28;20062;-76
2021/08/06 00:32:04;;;;;;;8.55;4.80;;;;;;;18.07;81.17;100265.94;4979289;28;20061;-79
2021/08/06 00:34:32;;;;;;;9.35;5.03;;;;;;;17.97;81.17;100264.88;4980650;28;20062;-77
2021/08/06 00:37:01;;;;;;;9.02;5.03;;;;;;;17.89;82.66;100259.16;4978098;28;20070;-76
2021/08/06 00:39:29;;;;;;;7.68;4.50;;;;;;;17.84;82.34;100259.47;4979519;28;20108;-76
2021/08/06 00:41:57;;;;;;;9.93;4.50;;;;;;;17.80;82.99;100257.09;4980739;28;20062;-76
2021/08/06 00:44:24;;;;;;;8.75;4.53;;;;;;;17.73;83.12;100245.88;4978117;28;20069;-76
2021/08/06 00:46:52;;;;;;;9.80;4.60;;;;;;;17.80;82.51;100249.84;4978845;28;20062;-77
2021/08/06 00:49:20;;;;;;;9.05;4.43;;;;;;;17.78;82.90;100256.34;4979643;28;20070;-76
2021/08/06 00:51:48;;;;;;;8.70;4.47;;;;;;;17.84;82.36;100256.78;4979692;28;20070;-77
2021/08/06 00:54:19;;;;;;;9.38;4.85;;;;;;;17.75;82.80;100246.63;4979504;28;20063;-76
2021/08/06 00:56:48;;;;;;;8.90;3.88;;;;;;;17.74;83.65;100247.59;4981642;28;20070;-76
2021/08/06 00:59:15;;;;;;;8.88;4.20;;;;;;;17.72;83.74;100249.53;4980218;28;20446;-77
2021/08/06 01:01:47;;;;;;;8.07;4.15;;;;;;;17.66;84.34;100256.25;4980926;28;20458;-76
2021/08/06 01:04:21;;;;;;;8.75;4.15;;;;;;;17.57;86.61;100259.59;4981391;28;20093;-77
2021/08/06 01:06:56;;;;;;;6.70;4.07;;;;;;;17.45;87.69;100250.53;4980527;28;20086;-76
2021/08/06 01:09:33;;;;;;;9.52;4.70;;;;;;;17.28;90.61;100259.81;4978706;28;20069;-76
2021/08/06 01:12:07;;;;;;;8.73;4.82;;;;;;;17.06;91.60;100260.41;4978392;28;20165;-76
2021/08/06 01:14:38;;;;;;;9.93;4.53;;;;;;;16.97;93.62;100248.44;4978433;28;20066;-72
2021/08/06 01:17:07;;;;;;;9.20;4.20;;;;;;;16.98;93.35;100239.38;4977721;28;20038;-72
2021/08/06 01:19:48;;;;;;;11.02;4.60;;;;;;;16.78;95.38;100237.97;4976884;28;20046;-72
2021/08/06 01:22:21;;;;;;;9.85;4.90;;;;;;;16.84;95.38;100249.31;4975992;28;20062;-71
2021/08/06 01:24:57;;;;;;;8.50;4.63;;;;;;;16.80;95.45;100237.88;4978114;28;20062;-72
2021/08/06 01:27:27;;;;;;;8.50;4.40;;;;;;;16.78;95.74;100237.97;4977638;28;20058;-71
2021/08/06 01:29:55;;;;;;;9.02;4.63;;;;;;;16.67;97.65;100236.97;4977026;28;20109;-72
2021/08/06 01:32:23;;;;;;;8.38;4.80;;;;;;;16.66;97.00;100237.97;4976121;28;20098;-72
2021/08/06 01:34:50;;;;;;;8.05;4.43;;;;;;;16.66;97.34;100233.44;4977773;28;20050;-72
2021/08/06 01:37:18;;;;;;;9.48;4.53;;;;;;;16.66;98.71;100224.50;4977954;28;20069;-72
2021/08/06 01:39:46;;;;;;;8.82;4.60;;;;;;;16.69;98.14;100230.53;4978758;28;20070;-73
2021/08/06 01:42:22;;;;;;;9.98;4.85;;;;;;;16.66;98.07;100224.50;4978789;28;20121;-73
2021/08/06 01:44:53;;;;;;;10.30;4.97;;;;;;;16.68;98.28;100214.47;4981387;28;20472;-78
2021/08/06 01:47:24;;;;;;;10.32;4.93;;;;;;;16.68;97.91;100218.03;4981858;28;20062;-78
2021/08/06 01:49:57;;;;;;;8.32;4.88;;;;;;;16.70;97.65;100217.94;4979714;28;20062;-78
2021/08/06 01:52:31;;;;;;;8.65;4.90;;;;;;;16.62;97.46;100211.22;4979634;28;20057;-77
2021/08/06 01:55:02;;;;;;;8.73;4.72;;;;;;;16.70;97.62;100215.22;4979898;28;20136;-73
2021/08/06 01:57:33;;;;;;;10.20;5.38;;;;;;;16.75;96.72;100210.41;4979325;28;20133;-73
2021/08/06 02:00:03;;;;;;;9.38;5.03;;;;;;;16.64;97.34;100213.81;4978848;28;20461;-73
2021/08/06 02:02:31;;;;;;;9.20;5.00;;;;;;;16.70;97.21;100201.75;4977567;28;20109;-73
2021/08/06 02:04:59;;;;;;;10.07;5.07;;;;;;;16.71;97.25;100200.81;4977751;28;20459;-73
2021/08/06 02:07:27;;;;;;;9.18;4.43;;;;;;;16.70;97.43;100202.66;4979686;28;20054;-73
2021/08/06 02:09:55;;;;;;;10.35;5.07;;;;;;;16.65;97.25;100193.97;4977812;28;20469;-72
2021/08/06 02:12:24;;;;;;;8.80;5.13;;;;;;;16.67;97.28;100199.28;4977829;28;20066;-73
2021/08/06 02:14:52;;;;;;;13.05;5.15;;;;;;;16.67;96.71;100197.47;4976146;28;20062;-72
2021/08/06 02:17:22;;;;;;;8.65;4.50;;;;;;;16.68;96.31;100192.94;4976418;28;21496;-71
2021/08/06 02:19:52;;;;;;;9.32;4.95;;;;;;;16.71;95.53;100193.56;4977340;28;20062;-71
2021/08/06 02:22:22;;;;;;;9.07;4.18;;;;;;;16.73;95.42;100198.88;4978135;28;20058;-71
2021/08/06 02:24:50;;;;;;;10.70;4.82;;;;;;;16.81;95.73;100193.81;4979171;28;20619;-71
2021/08/06 02:27:19;;;;;;;10.15;4.93;;;;;;;16.76;96.01;100194.13;4977015;28;20059;-70
2021/08/06 02:29:48;;;;;;;8.98;4.90;;;;;;;16.73;96.38;100197.03;4976702;28;20299;-70
2021/08/06 02:32:16;;;;;;;9.18;4.60;;;;;;;16.71;96.71;100196.28;4979070;28;20062;-70
2021/08/06 02:34:45;;;;;;;8.18;4.32;;;;;;;16.75;96.60;100192.41;4977979;28;20098;-70
2021/08/06 02:37:13;;;;;;;10.00;4.32;;;;;;;16.73;96.30;100193.47;4978161;28;20074;-71
2021/08/06 02:39:40;;;;;;;8.38;4.28;;;;;;;16.73;96.53;100193.47;4978582;28;20063;-70
2021/08/06 02:42:08;;;;;;;7.75;3.92;;;;;;;16.73;96.18;100190.78;4978744;28;20066;-70
2021/08/06 02:44:37;;;;;;;9.23;4.82;;;;;;;16.74;96.57;100192.53;4982938;28;20050;-70
2021/08/06 02:47:06;;;;;;;9.02;4.55;;;;;;;16.73;96.26;100188.94;4980090;28;20062;-70
2021/08/06 02:49:35;;;;;;;9.93;4.53;;;;;;;16.75;96.87;100187.03;4981592;28;20113;-70
2021/08/06 02:52:06;;;;;;;8.13;4.05;;;;;;;16.71;97.39;100190.88;4981407;28;20090;-70
2021/08/06 02:54:34;;;;;;;7.88;4.10;;;;;;;16.70;97.76;100185.59;4980434;28;20503;-69
2021/08/06 02:57:02;;;;;;;9.52;4.40;;;;;;;16.74;97.04;100198.75;4982167;28;20137;-70
2021/08/06 02:59:30;;;;;;;9.27;4.13;;;;;;;16.71;97.60;100196.28;4980440;28;20113;-70
2021/08/06 03:01:58;;;;;;;9.57;4.38;;;;;;;16.66;98.20;100193.03;4979125;28;20173;-71
2021/08/06 03:04:26;;;;;;;8.65;4.35;;;;;;;16.68;97.88;100199.16;4981056;28;20062;-71
2021/08/06 03:06:54;;;;;;;8.60;3.90;;;;;;;16.73;98.37;100193.47;4982884;28;20492;-70
2021/08/06 03:09:24;;;;;;;8.68;4.40;;;;;;;16.75;97.93;100189.72;4980167;28;20121;-71
2021/08/06 03:11:52;;;;;;;8.43;4.00;;;;;;;16.72;97.86;100189.94;4980272;28;20098;-71
2021/08/06 03:14:20;;;;;;;6.78;3.75;;;;;;;16.72;98.39;100187.25;4982386;28;20113;-70
2021/08/06 03:16:48;;;;;;;7.82;3.95;;;;;;;16.75;98.48;100189.72;4980898;28;20073;-71
2021/08/06 03:19:16;;;;;;;8.73;4.07;;;;;;;16.76;99.12;100187.88;4980949;28;20066;-71
2021/08/06 03:21:44;;;;;;;10.07;4.55;;;;;;;16.74;99.32;100182.59;4983699;28;20390;-72
2021/08/06 03:24:11;;;;;;;10.45;4.50;;;;;;;16.73;99.18;100188.94;4979779;28;20062;-75
2021/08/06 03:26:41;;;;;;;11.20;4.45;;;;;;;16.76;99.36;100177.97;4983668;28;20490;-75
2021/08/06 03:29:08;;;;;;;8.63;4.32;;;;;;;16.78;99.26;100184.09;4979698;28;20059;-75
2021/08/06 03:31:36;;;;;;;9.70;4.70;;;;;;;16.79;99.21;100183.16;4979655;28;20074;-74
2021/08/06 03:34:04;;;;;;;10.20;4.85;;;;;;;16.77;99.52;100179.72;4978945;28;20050;-75
2021/08/06 03:36:32;;;;;;;8.57;5.03;;;;;;;16.76;98.93;100175.28;4978410;28;20070;-75
2021/08/06 03:39:00;;;;;;;8.00;4.47;;;;;;;16.75;99.07;100178.94;4980699;28;20062;-75
2021/08/06 03:41:27;;;;;;;9.23;4.82;;;;;;;16.74;98.66;100179.91;4979335;28;20089;-75
2021/08/06 03:43:56;;;;;;;10.35;5.00;;;;;;;16.75;98.80;100178.06;4982077;28;20058;-71
2021/08/06 03:46:24;;;;;;;10.07;5.05;;;;;;;16.74;98.03;100168.28;4980350;28;20326;-71
2021/08/06 03:48:52;;;;;;;11.93;5.78;;;;;;;16.72;99.15;100175.56;4979814;28;20465;-71
2021/08/06 03:51:20;;;;;;;9.20;5.65;;;;;;;16.71;98.58;100172.03;4982416;28;20093;-71
2021/08/06 03:53:48;;;;;;;9.73;5.82;;;;;;;16.68;99.15;100180.31;4978687;28;20068;-71
2021/08/06 03:56:15;;;;;;;8.85;5.38;;;;;;;16.69;99.03;100179.34;4980140;28;20092;-71
2021/08/06 03:58:43;;;;;;;9.70;5.35;;;;;;;16.65;99.78;100179.66;4982100;28;20505;-71
2021/08/06 04:01:12;;;;;;;9.20;5.10;;;;;;;16.64;99.64;100186.03;4978357;28;20050;-70
2021/08/06 04:03:40;;;;;;;9.20;5.47;;;;;;;16.69;99.50;100186.59;4980575;28;20071;-71
2021/08/06 04:06:08;;;;;;;11.35;5.75;;;;;;;16.68;99.78;100188.41;4977593;28;20067;-71
2021/08/06 04:08:36;;;;;;;12.20;5.28;;;;;;;16.65;100.00;100185.91;4979322;28;20073;-71
2021/08/06 04:11:04;;;;;;;9.68;5.40;;;;;;;16.66;100.00;100184.09;4976846;28;20373;-71
2021/08/06 04:13:31;;;;;;;9.73;5.55;;;;;;;16.62;100.00;100191.53;4980962;28;20546;-71
2021/08/06 04:15:59;;;;;;;10.85;5.63;;;;;;;16.62;100.00;100191.53;4984222;28;20074;-71
2021/08/06 04:18:28;;;;;;;9.57;5.20;;;;;;;16.63;100.00;100185.16;4979339;28;20109;-70
2021/08/06 04:20:57;;;;;;;10.30;6.28;;;;;;;16.60;100.00;100193.44;4979562;28;20066;-70
2021/08/06 04:23:25;;;;;;;11.40;5.72;;;;;;;16.58;100.00;100195.38;4979035;28;20469;-70
2021/08/06 04:25:53;;;;;;;9.25;5.05;;;;;;;16.59;100.00;100199.81;4978749;28;20132;-70
2021/08/06 04:28:20;;;;;;;10.98;5.68;;;;;;;16.57;100.00;100194.53;4980711;28;20160;-71
2021/08/06 04:30:48;;;;;;;11.18;5.55;;;;;;;16.52;100.00;100193.97;4978539;28;20069;-71
2021/08/06 04:33:16;;;;;;;13.98;5.25;;;;;;;16.52;100.00;100195.81;4980414;28;20069;-71
2021/08/06 04:35:45;;;;;;;11.23;5.15;;;;;;;16.56;100.00;100198.16;4978693;28;20270;-71
2021/08/06 04:38:13;;;;;;;9.95;5.88;;;;;;;16.53;100.00;100195.69;4978887;28;20531;-74
2021/08/06 04:40:41;;;;;;;10.48;5.60;;;;;;;16.51;100.00;100197.59;4980280;28;20073;-74
2021/08/06 04:43:08;;;;;;;12.70;6.38;;;;;;;16.49;100.00;100196.84;4979080;28;20307;-77
2021/08/06 04:45:36;;;;;;;10.10;5.88;;;;;;;16.46;100.00;100199.75;4979014;28;20078;-72
2021/08/06 04:48:05;;;;;;;11.07;6.53;;;;;;;16.41;100.00;100192.00;4979786;28;20179;-72
2021/08/06 04:50:33;;;;;;;10.20;5.55;;;;;;;16.42;100.00;100193.72;4976184;28;20066;-72
2021/08/06 04:53:02;;;;;;;13.00;5.95;;;;;;;16.43;100.00;100189.22;4981616;28;20070;-72
2021/08/06 04:55:30;;;;;;;11.45;5.97;;;;;;;16.46;100.00;100199.75;4976915;28;20081;-72
2021/08/06 04:57:58;;;;;;;9.70;5.13;;;;;;;16.43;100.00;100202.66;4979385;28;20806;-73
2021/08/06 05:00:26;;;;;;;15.13;5.70;;;;;;;16.43;100.00;100211.59;4978434;28;20058;-73
2021/08/06 05:02:54;;;;;;;10.38;6.35;;;;;;;16.46;100.00;100210.53;4978118;28;20074;-73
2021/08/06 05:05:22;;;;;;;13.00;5.57;;;;;;;16.47;100.00;100208.72;4979985;28;20065;-73
2021/08/06 05:07:51;;;;;;;12.02;4.97;;;;;;;16.53;100.00;100206.47;4979354;28;20071;-77
2021/08/06 05:10:23;;;;;;;14.05;6.00;;;;;;;16.52;100.00;100204.75;4981138;28;20177;-75
2021/08/06 05:12:51;;;;;;;15.00;5.60;;;;;;;16.46;100.00;100202.44;4977914;28;20098;-76
2021/08/06 05:15:19;;;;;;;11.05;4.95;;;;;;;16.50;100.00;100198.59;4981232;28;20108;-75
2021/08/06 05:17:47;;;;;;;11.23;5.22;;;;;;;16.50;100.00;100201.28;4979520;28;20050;-75
2021/08/06 05:20:16;;;;;;;7.70;4.18;;;;;;;16.52;100.00;100201.19;4979201;28;20072;-74
2021/08/06 05:22:44;;;;;;;8.63;5.05;;;;;;;16.51;100.00;100194.91;4980050;28;20062;-73
2021/08/06 05:25:12;;;;;;;9.70;4.80;;;;;;;16.56;100.00;100195.47;4979533;28;20062;-74
2021/08/06 05:27:43;;;;;;;10.13;4.60;;;;;;;16.60;100.00;100199.69;4978933;28;20066;-74
2021/08/06 05:30:13;;;;;;;10.98;5.25;;;;;;;16.69;100.00;100205.44;4979945;28;20121;-69
2021/08/06 05:32:41;;;;;;;9.35;4.85;;;;;;;16.66;99.87;100203.81;4979799;28;20353;-69
2021/08/06 05:35:09;;;;;;;10.40;6.03;;;;;;;16.74;99.87;100212.22;4977287;28;20075;-68
2021/08/06 05:37:37;;;;;;;11.32;4.85;;;;;;;16.77;99.49;100208.44;4976382;28;20058;-69
2021/08/06 05:40:06;;;;;;;11.07;5.07;;;;;;;16.74;98.96;100214.06;4977946;28;20387;-69
2021/08/06 05:42:34;;;;;;;9.32;4.65;;;;;;;16.76;98.66;100212.97;4979747;28;20066;-70
2021/08/06 05:45:04;;;;;;;11.73;4.57;;;;;;;16.78;98.70;100204.81;4981091;28;20075;-71
2021/08/06 05:47:45;;;;;;;11.00;5.20;;;;;;;16.80;99.21;100219.03;4978950;28;20062;-71
2021/08/06 05:50:15;;;;;;;11.80;5.13;;;;;;;16.83;98.83;100208.03;4975082;28;20296;-72
2021/08/06 05:52:43;;;;;;;10.35;5.00;;;;;;;16.87;97.66;100204.19;4977487;28;20054;-72
2021/08/06 05:55:14;;;;;;;15.02;5.60;;;;;;;16.95;97.88;100209.94;4976089;28;20062;-72
2021/08/06 05:57:42;;;;;;;11.07;5.70;;;;;;;16.97;97.21;100207.13;4977031;28;20062;-72
2021/08/06 06:00:15;;;;;;;11.18;5.68;;;;;;;17.03;96.48;100213.94;4974802;28;20430;-72
2021/08/06 06:02:43;;;;;;;12.80;5.70;;;;;;;17.08;96.28;100214.50;4977807;28;20093;-71
2021/08/06 06:05:11;;;;;;;13.60;6.15;;;;;;;17.15;96.38;100218.47;4978099;28;20070;-71
2021/08/06 06:07:45;;;;;;;11.63;5.57;;;;;;;17.16;96.62;100218.38;4973106;28;20490;-72
2021/08/06 06:10:18;;;;;;;12.02;4.93;;;;;;;17.25;96.25;100218.72;4976994;28;20043;-72
2021/08/06 06:12:46;;;;;;;9.82;4.78;;;;;;;17.17;94.72;100211.16;4975342;28;20445;-69
2021/08/06 06:15:16;;;;;;;10.20;4.45;;;;;;;17.11;95.54;100217.84;4978014;28;20227;-71
2021/08/06 06:17:44;;;;;;;9.93;4.70;;;;;;;17.15;95.36;100222.03;4978670;28;20133;-70
2021/08/06 06:20:16;;;;;;;10.52;4.65;;;;;;;17.22;94.85;100214.38;4977384;28;20062;-74
2021/08/06 06:22:53;;;;;;;9.25;4.97;;;;;;;17.17;94.23;100220.09;4977935;28;20070;-70
2021/08/06 06:25:21;;;;;;;9.68;5.28;;;;;;;17.28;93.59;100226.56;4980588;28;20066;-73
2021/08/06 06:27:55;;;;;;;11.65;5.38;;;;;;;17.45;93.08;100228.97;4978818;28;20153;-71
2021/08/06 06:30:26;;;;;;;10.65;4.82;;;;;;;17.38;92.08;100227.66;4980598;28;20058;-70
2021/08/06 06:32:55;;;;;;;9.73;5.50;;;;;;;17.49;91.88;100232.31;4977876;28;20148;-68
2021/08/06 06:35:24;;;;;;;11.77;5.70;;;;;;;17.43;91.59;100235.41;4975696;28;20157;-70
2021/08/06 06:37:52;;;;;;;12.32;5.10;;;;;;;17.37;91.33;100244.81;4978740;28;20138;-70
2021/08/06 06:40:22;;;;;;;10.70;4.88;;;;;;;17.38;91.59;100235.72;4976275;28;20077;-70
2021/08/06 06:42:50;;;;;;;11.50;5.40;;;;;;;17.66;90.62;100231.09;4977760;28;20062;-70
2021/08/06 06:45:19;;;;;;;14.80;6.22;;;;;;;18.00;88.16;100234.09;4976482;28;20357;-70
2021/08/06 06:47:51;;;;;;;11.82;5.85;;;;;;;18.53;85.24;100233.81;4978781;28;20757;-70
2021/08/06 06:50:21;;;;;;;16.20;6.43;;;;;;;18.51;84.25;100230.34;4978089;28;20136;-70
2021/08/06 06:52:49;;;;;;;11.88;6.00;;;;;;;19.20;83.57;100228.66;4977783;28;20085;-71
2021/08/06 06:55:18;;;;;;;11.73;5.60;;;;;;;19.64;81.46;100230.72;4977039;28;20070;-72
2021/08/06 06:57:49;;;;;;;13.10;5.70;;;;;;;19.57;80.65;100233.91;4977452;28;20090;-70
2021/08/06 07:00:22;;;;;;;10.70;4.78;;;;;;;19.28;79.92;100233.50;4975708;28;20395;-70
2021/08/06 07:02:52;;;;;;;10.75;5.40;;;;;;;19.34;77.61;100233.03;4978149;28;20169;-70
2021/08/06 07:05:20;;;;;;;12.18;5.22;;;;;;;19.27;79.13;100234.47;4977929;28;20070;-70
2021/08/06 07:07:48;;;;;;;11.27;4.93;;;;;;;19.66;79.51;100248.53;4978514;28;20186;-71
2021/08/06 07:10:17;;;;;;;11.20;4.70;;;;;;;19.30;78.83;100236.06;4983979;28;20069;-70
2021/08/06 07:12:46;;;;;;;8.63;4.35;;;;;;;19.04;79.34;100258.75;4980489;28;20077;-71
2021/08/06 07:15:15;;;;;;;7.78;3.83;;;;;;;19.30;80.03;100244.19;4978369;28;20362;-71
2021/08/06 07:17:43;;;;;;;12.38;4.60;;;;;;;19.12;80.74;100243.75;4978977;28;20065;-71
2021/08/06 07:20:15;;;;;;;9.57;3.90;;;;;;;18.85;80.66;100248.47;4981268;28;20093;-69
2021/08/06 07:22:43;;;;;;;12.07;4.32;;;;;;;18.75;80.94;100250.13;4981176;28;20180;-70
2021/08/06 07:25:13;;;;;;;7.90;3.90;;;;;;;18.77;80.94;100248.16;4981320;28;20174;-70
2021/08/06 07:27:43;;;;;;;9.05;4.07;;;;;;;18.82;81.16;100243.31;4978960;28;20054;-69
2021/08/06 07:30:13;;;;;;;11.45;4.25;;;;;;;18.75;81.14;100244.72;4976799;28;20087;-72
2021/08/06 07:32:41;;;;;;;11.27;4.13;;;;;;;18.96;81.46;100238.69;4979798;28;20073;-71
2021/08/06 07:35:10;;;;;;;10.30;4.20;;;;;;;18.95;80.65;100248.66;4981201;28;20120;-72
2021/08/06 07:37:41;;;;;;;10.18;4.22;;;;;;;18.88;80.25;100238.41;4982532;28;20274;-71
2021/08/06 07:40:12;;;;;;;8.38;3.83;;;;;;;18.96;78.94;100244.94;4982339;28;20066;-75
2021/08/06 07:42:40;;;;;;;7.60;4.07;;;;;;;19.11;78.95;100233.94;4982417;28;20485;-75
2021/08/06 07:45:09;;;;;;;8.70;4.20;;;;;;;19.16;79.04;100243.41;4982712;28;20528;-76
2021/08/06 07:47:37;;;;;;;9.88;4.03;;;;;;;19.00;79.39;100242.88;4980264;28;20311;-75
2021/08/06 07:50:06;;;;;;;9.35;4.00;;;;;;;19.16;79.95;100240.72;4979001;28;20065;-75
2021/08/06 07:52:34;;;;;;;8.82;3.80;;;;;;;18.85;79.01;100255.75;4980788;28;20129;-75
2021/08/06 07:55:05;;;;;;;8.43;4.00;;;;;;;18.71;79.62;100248.66;4979742;28;20844;-75
2021/08/06 07:57:33;;;;;;;11.57;3.83;;;;;;;18.75;80.09;100246.56;4981947;28;20413;-70
2021/08/06 08:00:01;;;;;;;12.88;4.53;;;;;;;18.66;79.86;100253.50;4977556;28;20050;-71
2021/08/06 08:02:28;;;;;;;7.97;3.83;;;;;;;18.63;79.56;100251.91;4981389;28;20070;-71
2021/08/06 08:04:56;;;;;;;10.27;4.57;;;;;;;18.48;79.95;100250.38;4980234;28;20073;-70
2021/08/06 08:07:24;;;;;;;10.88;4.32;;;;;;;18.82;79.49;100251.41;4981579;28;20190;-74
2021/08/06 08:09:52;;;;;;;11.65;4.43;;;;;;;19.48;78.00;100241.88;4982737;28;20108;-74
2021/08/06 08:12:21;;;;;;;10.05;4.40;;;;;;;19.21;76.61;100240.38;4980371;28;20569;-73
2021/08/06 08:14:49;;;;;;;8.00;3.70;;;;;;;19.21;77.43;100243.94;4981727;28;20062;-74
2021/08/06 08:17:17;;;;;;;10.05;3.97;;;;;;;19.79;76.14;100232.22;4978750;28;20400;-74
2021/08/06 08:19:46;;;;;;;9.82;3.53;;;;;;;20.14;74.72;100239.31;4978511;28;20071;-74
2021/08/06 08:22:13;;;;;;;9.93;3.83;;;;;;;19.73;75.09;100238.09;4976373;28;20361;-75
2021/08/06 08:24:41;;;;;;;9.35;3.90;;;;;;;19.50;75.84;100246.19;4977633;28;20073;-74
2021/08/06 08:27:09;;;;;;;11.65;3.83;;;;;;;19.41;75.98;100244.22;4978666;28;20069;-74
2021/08/06 08:29:38;;;;;;;9.02;3.95;;;;;;;19.12;76.72;100244.66;4980107;28;20571;-75
2021/08/06 08:32:07;;;;;;;9.98;3.92;;;;;;;19.78;75.78;100249.44;4980249;28;20073;-73
2021/08/06 08:34:35;;;;;;;10.63;4.07;;;;;;;19.99;73.89;100249.56;4980424;28;20131;-73
2021/08/06 08:37:03;;;;;;;11.07;3.35;;;;;;;20.19;72.35;100247.91;4977671;28;20137;-74
2021/08/06 08:39:31;;;;;;;7.45;3.47;;;;;;;19.76;73.43;100254.97;4981065;28;20058;-72
2021/08/06 08:42:00;;;;;;;9.23;3.83;;;;;;;19.58;74.40;100243.75;4977827;28;20086;-72
2021/08/06 08:44:28;;;;;;;9.13;3.10;;;;;;;20.11;72.95;100247.72;4980300;28;20074;-73
2021/08/06 08:46:57;;;;;;;9.40;3.40;;;;;;;21.06;70.36;100239.78;4979659;28;20351;-75
2021/08/06 08:49:29;;;;;;;8.25;2.63;;;;;;;20.99;69.26;100240.44;4978360;28;20068;-75
2021/08/06 08:51:59;;;;;;;6.40;2.72;;;;;;;21.29;68.93;100241.50;4976752;28;20070;-74
2021/08/06 08:54:27;;;;;;;9.30;2.78;;;;;;;20.79;69.58;100245.72;4977658;28;20109;-74
2021/08/06 08:56:55;;;;;;;7.10;2.97;;;;;;;20.58;69.85;100256.44;4979359;28;20108;-74
2021/08/06 08:59:23;;;;;;;6.18;2.70;;;;;;;20.28;70.75;100255.31;4979724;28;20067;-76
2021/08/06 09:01:50;;;;;;;5.40;2.33;;;;;;;20.29;70.25;100262.44;4977010;28;20070;-75
2021/08/06 09:04:22;;;;;;;6.30;2.55;;;;;;;20.59;69.76;100260.91;4984348;28;20445;-74
2021/08/06 09:06:50;;;;;;;7.13;2.95;;;;;;;20.32;70.29;100255.91;4978729;28;20073;-73
2021/08/06 09:09:21;;;;;;;6.47;2.80;;;;;;;19.85;71.99;100280.44;4980186;28;20047;-73
2021/08/06 09:11:50;;;;;;;7.30;2.50;;;;;;;19.69;72.12;100269.94;4983110;28;20105;-75
2021/08/06 09:14:20;;;;;;;7.25;3.00;;;;;;;19.87;71.53;100262.25;4981443;28;20120;-74
2021/08/06 09:17:00;;;;;;;10.45;4.10;;;;;;;19.76;72.51;100263.09;4983778;28;20046;-74
2021/08/06 09:19:31;;;;;;;7.95;3.33;;;;;;;20.11;71.55;100267.53;4982446;28;20361;-75
2021/08/06 09:22:26;;;;;;;9.80;3.83;;;;;;;20.21;71.33;100266.75;4981250;28;20436;-68
2021/08/06 09:25:05;;;;;;;9.07;3.65;;;;;;;20.07;71.26;100267.88;4968649;28;20069;-71
2021/08/06 09:27:35;;;;;;;8.65;3.72;;;;;;;20.25;70.31;100273.66;4980474;28;20077;-68
2021/08/06 09:30:07;;;;;;;9.95;3.53;;;;;;;20.26;70.48;100265.41;4980938;28;20073;-68
2021/08/06 09:32:54;;;;;;;7.15;2.97;;;;;;;20.97;69.18;100254.13;4977381;28;20070;-69
2021/08/06 09:35:26;;;;;;;9.45;3.35;;;;;;;20.93;69.90;100262.66;4978594;28;20066;-69
2021/08/06 09:37:56;;;;;;;7.72;2.80;;;;;;;20.91;68.33;100257.38;4980395;28;20081;-68
2021/08/06 09:40:25;;;;;;;6.45;3.03;;;;;;;20.51;69.62;100271.50;4979708;28;20042;-69
2021/08/06 09:42:57;;;;;;;6.45;2.88;;;;;;;20.42;70.24;100267.72;4978489;28;20405;-69
2021/08/06 09:45:27;;;;;;;5.97;2.50;;;;;;;20.44;70.82;100284.69;4978075;28;20051;-69
2021/08/06 09:47:56;;;;;;;5.57;2.75;;;;;;;20.14;72.33;100278.13;4977177;28;20062;-68
2021/08/06 09:50:33;;;;;;;8.45;3.00;;;;;;;20.15;72.50;100270.84;4976967;28;20070;-73
2021/08/06 09:53:02;;;;;;;5.80;2.65;;;;;;;20.19;71.22;100269.59;4980143;28;20066;-72
2021/08/06 09:55:32;;;;;;;6.60;3.28;;;;;;;19.92;75.03;100269.97;4984599;28;20142;-73
2021/08/06 09:58:01;;;;;;;8.43;3.08;;;;;;;20.25;76.62;100274.53;4981830;28;20062;-74
2021/08/06 10:00:34;;;;;;;7.43;3.28;;;;;;;20.58;74.39;100271.88;4982274;28;20079;-73
2021/08/06 10:03:02;;;;;;;6.90;3.42;;;;;;;20.50;74.08;100281.50;4981333;28;20071;-73
2021/08/06 10:05:32;;;;;;;7.85;3.60;;;;;;;20.37;74.73;100267.22;4983910;28;20120;-74
2021/08/06 10:08:02;;;;;;;7.45;3.08;;;;;;;21.97;71.34;100258.19;4984915;28;20336;-74
2021/08/06 10:10:32;;;;;;;6.43;3.33;;;;;;;21.38;70.41;100255.13;4981520;28;20112;-73
2021/08/06 10:13:01;;;;;;;10.18;3.50;;;;;;;20.84;71.77;100254.31;4983179;28;20081;-74
2021/08/06 10:15:29;;;;;;;8.40;3.40;;;;;;;20.59;71.93;100260.06;4983321;28;20121;-73
2021/08/06 10:17:59;;;;;;;5.93;3.50;;;;;;;20.23;74.42;100268.38;4984348;28;20565;-75
2021/08/06 10:20:29;;;;;;;6.40;3.38;;;;;;;19.90;78.19;100280.97;4983040;28;20571;-74
2021/08/06 10:22:58;;;;;;;6.78;3.08;;;;;;;19.92;77.33;100273.56;4984401;28;20066;-74
2021/08/06 10:25:30;;;;;;;6.93;3.42;;;;;;;19.30;81.33;100299.13;4981343;28;20070;-74
2021/08/06 10:27:58;;;;;;;8.00;3.50;;;;;;;18.79;86.88;100299.41;4984466;28;20284;-73
2021/08/06 10:30:28;;;;;;;9.32;4.13;;;;;;;18.58;88.83;100305.44;4982732;28;20062;-73
2021/08/06 10:33:06;;;;;;;5.82;2.85;;;;;;;18.14;89.15;100301.44;4982213;28;20464;-71
2021/08/06 10:35:44;;;;;;;4.75;2.90;;;;;;;18.42;88.96;100294.91;4980613;28;20058;-72
2021/08/06 10:38:13;;;;;;;8.00;3.22;;;;;;;18.60;88.28;100292.66;4982008;28;20476;-73
2021/08/06 10:41:09;;;;;;;4.88;3.00;;;;;;;18.63;89.30;100297.84;4983736;28;20077;-72
2021/08/06 10:43:40;;;;;;;5.95;3.40;;;;;;;18.48;89.40;100293.59;4981388;28;20333;-71
2021/08/06 10:46:09;;;;;;;8.30;3.53;;;;;;;17.98;90.55;100295.41;4981058;28;20379;-72
2021/08/06 10:48:40;;;;;;;9.57;4.90;;;;;;;17.82;93.77;100290.22;4984117;28;20065;-72
2021/08/06 10:51:21;;;;;;;8.00;4.03;;;;;;;17.81;92.14;100296.59;4981814;28;20144;-71
2021/08/06 10:54:35;;;;;;;8.10;4.53;;;;;;;17.94;94.62;100299.31;4980357;28;20054;-72
2021/08/06 10:57:29;;;;;;;10.20;4.40;;;;;;;17.96;92.55;100291.97;4979255;28;20073;-71
2021/08/06 10:59:58;;;;;;;;;;;;;;;18.02;92.01;100295.09;4981893;28;20066;-72
2021/08/06 11:02:46;;;;;;;8.65;4.50;;;;;;;18.11;92.72;100294.41;4982882;28;19957;-72
2021/08/06 11:05:34;;;;;;;9.68;4.75;;;;;;;18.88;91.53;100285.22;4982273;28;20420;-73
2021/08/06 11:08:04;;;;;;;11.95;5.38;;;;;;;19.21;92.09;100278.22;4979153;28;20100;-73
2021/08/06 11:10:53;;;;;;;9.68;4.57;;;;;;;18.62;89.38;100292.56;4981279;28;20062;-73
2021/08/06 11:13:53;;;;;;;6.88;3.72;;;;;;;18.56;89.77;100293.88;4982586;28;20610;-72
2021/08/06 11:16:21;;;;;;;8.43;4.10;;;;;;;18.31;92.32;100289.41;4980794;28;20173;-72
2021/08/06 11:18:50;;;;;;;6.97;4.07;;;;;;;18.47;93.05;100289.13;4981641;28;20077;-73
2021/08/06 11:21:22;;;;;;;7.10;4.00;;;;;;;18.50;91.48;100278.13;4976943;28;20067;-71
2021/08/06 11:24:00;;;;;;;8.68;4.07;;;;;;;18.58;92.54;100288.38;4980024;28;20066;-72
2021/08/06 11:26:30;;;;;;;6.85;3.50;;;;;;;18.59;90.35;100292.78;4989536;28;20070;-71
2021/08/06 11:28:57;;;;;;;7.60;4.18;;;;;;;18.53;90.33;100279.75;4981637;28;20262;-72
2021/08/06 11:31:25;;;;;;;8.63;3.90;;;;;;;18.80;87.77;100295.72;4980126;28;20073;-73
2021/08/06 11:34:05;;;;;;;6.32;3.50;;;;;;;18.71;88.00;100291.00;4980989;28;20071;-72
2021/08/06 11:36:34;;;;;;;7.18;3.50;;;;;;;18.65;88.62;100303.13;4981688;28;20066;-73